Accueil
METAR-TAF:

METAR-TAF

Aéroports :

Aéroport de La Grande-4

La Grande-4, Québec, Canada

latitude: 53-45N, longitude: 073-40W, altitude: 306 m

Observation

Le bulletin a été fait il y a 1 heure et 4 minutes, à 23:00 UTC
Vent 4 kt de nord/nord-ouest, variant entre ouest/nord-ouest et nord/nord-est
Température 3°C
Humidité 44%
Pression 1018 hPa
Visibilité: 14.5 km
Ciel clair

METAR: CYAH 232300Z AUTO 33004KT 300V030 9SM CLR 03/M08 A3007 RMK SLP206

Heure: 20:04 (00:04 UTC)

Prévision

Le bulletin a été fait il y a 6 heures et 25 minutes, à 17:39 UTC
Prévision valable du 23 à 18 UTC au 23 à 21 UTC
Vent 8 kt de nord/nord-ouest
Visibilité: 10 km
Nuages épars à une hauteur de 2500 ft
Temporairement
du 23 à 18 UTC au 23 à 21 UTC
Nuages fragmentés à une hauteur de 2500 ft

TAF: CYAH 231739Z 2318/2321 33008KT P6SM SCT025 TEMPO 2318/2321 BKN025 RMK FCST BASED ON AUTO OBS. NXT FCST WILL BE ISSUED AT 241045Z

Observations et prévisions météorologiques de plus de 4000 aéroports (messages METAR et TAF).

Les stations disponibles sont représentées par des disques jaunes et rouges sur la carte.

Passer la souris dessus pour voir le nom de la station.

Cliquer dessus pour voir les observations et prévisions météorologiques.

Pour changer de carte: cliquez sur les boutons verts avec une croix noire pour zoomer, sur le bouton vert avec un tiret pour effectuer un zoom arrière, ou sur les flèches vertes pour les cartes adjacentes.


METAR-TAF: